createdAt,value
2017-08-27T00:00:00.263Z,22.10
2017-08-27T00:02:29.680Z,22.10
2017-08-27T00:04:58.644Z,22.10
2017-08-27T00:07:28.533Z,22.10
2017-08-27T00:09:57.523Z,22.00
2017-08-27T00:12:27.107Z,22.00
2017-08-27T00:14:56.118Z,22.00
2017-08-27T00:17:25.088Z,22.00
2017-08-27T00:19:59.671Z,21.90
2017-08-27T00:22:29.287Z,21.90
2017-08-27T00:24:58.681Z,21.90
2017-08-27T00:27:27.734Z,21.90
2017-08-27T00:29:56.883Z,21.80
2017-08-27T00:32:26.028Z,21.70
2017-08-27T00:34:55.084Z,21.70
2017-08-27T00:37:24.322Z,21.70
2017-08-27T00:39:53.279Z,21.70
2017-08-27T00:42:22.291Z,21.70
2017-08-27T00:44:51.459Z,21.70
2017-08-27T00:47:20.437Z,21.70
2017-08-27T00:49:49.612Z,21.60
2017-08-27T00:52:18.733Z,21.60
2017-08-27T00:54:47.689Z,21.60
2017-08-27T00:57:16.676Z,21.60
2017-08-27T00:59:45.623Z,21.50
2017-08-27T01:02:14.588Z,21.50
2017-08-27T01:04:43.547Z,21.50
2017-08-27T01:07:12.512Z,21.50
2017-08-27T01:09:41.497Z,21.40
2017-08-27T01:12:10.446Z,21.30
2017-08-27T01:14:41.422Z,21.30
2017-08-27T01:17:10.389Z,21.30
2017-08-27T01:19:39.353Z,21.30
2017-08-27T01:22:08.315Z,21.30
2017-08-27T01:24:37.271Z,21.20
2017-08-27T01:27:06.251Z,21.20
2017-08-27T01:29:35.211Z,21.10
2017-08-27T01:32:04.171Z,21.10
2017-08-27T01:34:33.136Z,21.10
2017-08-27T01:37:02.095Z,21.00
2017-08-27T01:39:31.071Z,21.00
2017-08-27T01:42:00.040Z,21.00
2017-08-27T01:44:28.992Z,21.00
2017-08-27T01:46:57.959Z,21.00
2017-08-27T01:49:26.915Z,20.90
2017-08-27T01:51:55.891Z,20.90
2017-08-27T01:54:24.846Z,20.90
2017-08-27T01:56:53.804Z,20.90
2017-08-27T01:59:22.768Z,20.80
2017-08-27T02:01:51.726Z,20.80
2017-08-27T02:04:20.712Z,20.80
2017-08-27T02:06:49.672Z,20.80
2017-08-27T02:09:18.632Z,20.80
2017-08-27T02:11:47.595Z,20.80
2017-08-27T02:14:16.556Z,20.70
2017-08-27T02:16:45.539Z,20.70
2017-08-27T02:19:14.507Z,20.60
2017-08-27T02:21:43.451Z,20.60
2017-08-27T02:24:12.441Z,20.60
2017-08-27T02:26:41.407Z,20.50
2017-08-27T02:29:10.393Z,20.50
2017-08-27T02:31:39.361Z,20.50
2017-08-27T02:34:08.326Z,20.50
2017-08-27T02:36:37.287Z,20.50
2017-08-27T02:39:06.252Z,20.40
2017-08-27T02:41:35.240Z,20.40
2017-08-27T02:44:04.191Z,20.50
2017-08-27T02:46:33.148Z,20.40
2017-08-27T02:49:02.115Z,20.40
2017-08-27T02:51:31.079Z,20.30
2017-08-27T02:54:00.078Z,20.30
2017-08-27T02:56:29.035Z,20.30
2017-08-27T02:58:58.001Z,20.30
2017-08-27T03:01:44.408Z,20.30
2017-08-27T03:04:13.363Z,20.30
2017-08-27T03:06:42.352Z,20.20
2017-08-27T03:09:11.310Z,20.30
2017-08-27T03:11:40.272Z,20.30
2017-08-27T03:14:09.248Z,20.30
2017-08-27T03:16:38.211Z,20.30
2017-08-27T03:19:07.200Z,20.30
2017-08-27T03:21:36.168Z,20.30
2017-08-27T03:24:05.128Z,20.30
2017-08-27T03:26:34.087Z,20.30
2017-08-27T03:29:03.051Z,20.30
2017-08-27T03:31:32.041Z,20.30
2017-08-27T03:34:00.999Z,20.30
2017-08-27T03:36:29.959Z,20.30
2017-08-27T03:38:58.927Z,20.30
2017-08-27T03:41:27.897Z,20.20
2017-08-27T03:43:56.879Z,20.20
2017-08-27T03:46:25.840Z,20.20
2017-08-27T03:48:54.804Z,20.20
2017-08-27T03:51:23.772Z,20.20
2017-08-27T03:53:52.735Z,20.10
2017-08-27T03:56:21.711Z,20.10
2017-08-27T03:58:50.676Z,20.00
2017-08-27T04:01:19.639Z,19.90
2017-08-27T04:03:48.608Z,19.90
2017-08-27T04:06:17.573Z,19.90
2017-08-27T04:08:46.549Z,19.80
2017-08-27T04:11:15.509Z,19.80
2017-08-27T04:13:44.471Z,19.90
2017-08-27T04:16:13.442Z,19.80
2017-08-27T04:18:42.417Z,19.80
2017-08-27T04:21:11.398Z,19.80
2017-08-27T04:23:40.362Z,19.80
2017-08-27T04:26:09.319Z,19.80
2017-08-27T04:28:38.279Z,19.80
2017-08-27T04:31:07.245Z,19.80
2017-08-27T04:33:36.207Z,19.80
2017-08-27T04:36:05.171Z,19.80
2017-08-27T04:38:34.138Z,19.80
2017-08-27T04:41:03.099Z,19.80
2017-08-27T04:43:32.067Z,19.80
2017-08-27T04:46:01.039Z,19.80
2017-08-27T04:48:30.003Z,19.70
2017-08-27T04:50:58.963Z,19.70
2017-08-27T04:53:27.927Z,19.70
2017-08-27T04:55:56.882Z,19.80
2017-08-27T04:58:25.868Z,19.80
2017-08-27T05:00:54.831Z,19.80
2017-08-27T05:03:23.784Z,19.80
2017-08-27T05:05:52.752Z,19.90
2017-08-27T05:08:21.751Z,19.90
2017-08-27T05:10:50.722Z,19.90
2017-08-27T05:13:19.682Z,20.00
2017-08-27T05:15:48.640Z,20.00
2017-08-27T05:18:27.744Z,20.10
2017-08-27T05:20:56.699Z,20.10
2017-08-27T05:23:25.675Z,20.20
2017-08-27T05:25:54.636Z,20.20
2017-08-27T05:28:23.592Z,20.20
2017-08-27T05:30:52.560Z,20.30
2017-08-27T05:33:21.519Z,20.40
2017-08-27T05:35:50.499Z,20.40
2017-08-27T05:38:19.471Z,20.50
2017-08-27T05:40:48.430Z,20.60
2017-08-27T05:43:17.395Z,20.60
2017-08-27T05:45:47.307Z,20.70
2017-08-27T05:48:16.286Z,20.80
2017-08-27T05:50:45.230Z,20.80
2017-08-27T05:53:14.208Z,20.90
2017-08-27T05:55:43.176Z,21.00
2017-08-27T05:58:12.136Z,21.10
2017-08-27T06:00:41.115Z,21.20
2017-08-27T06:03:10.071Z,21.30
2017-08-27T06:05:39.040Z,21.40
2017-08-27T06:08:08.004Z,21.40
2017-08-27T06:10:36.963Z,21.50
2017-08-27T06:13:05.943Z,21.50
2017-08-27T06:15:35.938Z,21.60
2017-08-27T06:18:04.899Z,21.60
2017-08-27T06:20:33.863Z,21.70
2017-08-27T06:23:02.823Z,21.90
2017-08-27T06:25:31.817Z,22.10
2017-08-27T06:28:01.706Z,22.30
2017-08-27T06:30:30.670Z,22.50
2017-08-27T06:32:59.644Z,22.80
2017-08-27T06:35:28.601Z,22.90
2017-08-27T06:37:57.596Z,23.10
2017-08-27T06:40:26.550Z,23.30
2017-08-27T06:42:55.520Z,23.40
2017-08-27T06:45:24.488Z,23.50
2017-08-27T06:47:53.447Z,23.70
2017-08-27T06:50:27.184Z,23.80
2017-08-27T06:52:56.143Z,23.90
2017-08-27T06:55:25.111Z,24.00
2017-08-27T06:57:54.094Z,24.10
2017-08-27T07:00:23.053Z,24.20
2017-08-27T07:02:52.030Z,24.30
2017-08-27T07:05:31.119Z,24.50
2017-08-27T07:08:00.369Z,24.70
2017-08-27T07:10:29.796Z,24.80
2017-08-27T07:12:58.793Z,25.00
2017-08-27T07:15:27.882Z,25.10
2017-08-27T07:17:56.864Z,25.30
2017-08-27T07:20:25.854Z,25.50
2017-08-27T07:22:54.833Z,25.60
2017-08-27T07:25:23.792Z,25.80
2017-08-27T07:27:52.751Z,26.10
2017-08-27T07:30:21.716Z,26.30
2017-08-27T07:32:50.671Z,26.50
2017-08-27T07:35:19.660Z,26.70
2017-08-27T07:37:48.623Z,27.00
2017-08-27T07:40:17.578Z,27.30
2017-08-27T07:42:46.559Z,27.70
2017-08-27T07:45:15.530Z,28.00
2017-08-27T07:47:44.503Z,28.20
2017-08-27T07:50:13.463Z,28.40
2017-08-27T07:52:42.423Z,28.40
2017-08-27T07:55:11.390Z,28.20
2017-08-27T07:57:40.340Z,28.00
2017-08-27T08:00:09.320Z,27.80
2017-08-27T08:02:38.279Z,27.60
2017-08-27T08:05:07.236Z,27.40
2017-08-27T08:07:36.207Z,27.20
2017-08-27T08:10:05.159Z,27.10
2017-08-27T08:12:34.143Z,27.10
2017-08-27T08:15:03.101Z,27.00
2017-08-27T08:17:32.054Z,27.00
2017-08-27T08:20:01.028Z,27.00
2017-08-27T08:22:29.991Z,27.10
2017-08-27T08:24:58.967Z,27.20
2017-08-27T08:27:27.928Z,27.40
2017-08-27T08:29:56.901Z,27.60
2017-08-27T08:32:25.859Z,27.90
2017-08-27T08:34:54.911Z,28.30
2017-08-27T08:37:23.883Z,28.70
2017-08-27T08:39:52.847Z,29.00
2017-08-27T08:42:21.804Z,29.30
2017-08-27T08:44:50.771Z,29.40
2017-08-27T08:47:19.736Z,29.40
2017-08-27T08:49:48.727Z,29.50
2017-08-27T08:52:17.693Z,29.50
2017-08-27T08:54:46.648Z,29.30
2017-08-27T08:57:15.739Z,29.10
2017-08-27T08:59:44.725Z,29.10
2017-08-27T09:02:15.665Z,29.00
2017-08-27T09:04:44.639Z,29.30
2017-08-27T09:07:13.604Z,29.80
2017-08-27T09:09:42.587Z,30.40
2017-08-27T09:12:11.544Z,30.80
2017-08-27T09:14:40.593Z,30.90
2017-08-27T09:17:09.593Z,30.80
2017-08-27T09:19:38.551Z,30.60
2017-08-27T09:22:07.503Z,30.40
2017-08-27T09:24:37.493Z,30.20
2017-08-27T09:27:06.423Z,30.00
2017-08-27T09:29:40.831Z,30.00
2017-08-27T09:32:09.799Z,29.90
2017-08-27T09:34:38.876Z,29.90
2017-08-27T09:37:07.831Z,29.80
2017-08-27T09:39:36.796Z,29.80
2017-08-27T09:42:05.775Z,29.80
2017-08-27T09:44:34.734Z,29.90
2017-08-27T09:47:03.719Z,30.10
2017-08-27T09:49:32.687Z,30.10
2017-08-27T09:52:01.685Z,30.00
2017-08-27T09:54:30.649Z,29.70
2017-08-27T09:56:59.635Z,29.50
2017-08-27T09:59:28.816Z,29.20
2017-08-27T10:01:57.777Z,28.80
2017-08-27T10:04:26.739Z,28.60
2017-08-27T10:06:55.699Z,28.30
2017-08-27T10:09:24.682Z,28.00
2017-08-27T10:11:53.779Z,27.80
2017-08-27T10:14:25.880Z,27.60
2017-08-27T10:16:54.857Z,27.40
2017-08-27T10:19:23.826Z,27.10
2017-08-27T10:21:57.356Z,26.70
2017-08-27T10:24:26.312Z,26.40
2017-08-27T10:26:55.325Z,26.10
2017-08-27T10:29:24.284Z,25.80
2017-08-27T10:31:53.256Z,25.60
2017-08-27T10:34:22.256Z,25.40
2017-08-27T10:36:51.220Z,25.40
2017-08-27T10:39:22.202Z,25.30
2017-08-27T10:41:51.168Z,25.20
2017-08-27T10:44:20.125Z,25.10
2017-08-27T10:46:49.094Z,25.00
2017-08-27T10:49:18.056Z,24.90
2017-08-27T10:51:47.015Z,24.90
2017-08-27T10:54:15.983Z,24.90
2017-08-27T10:56:44.946Z,25.00
2017-08-27T10:59:14.017Z,25.20
2017-08-27T11:01:42.983Z,25.40
2017-08-27T11:04:11.965Z,25.50
2017-08-27T11:06:40.957Z,25.70
2017-08-27T11:09:09.928Z,25.80
2017-08-27T11:11:38.889Z,26.00
2017-08-27T11:14:07.860Z,26.20
2017-08-27T11:16:36.828Z,26.40
2017-08-27T11:19:05.811Z,26.60
2017-08-27T11:21:34.795Z,26.90
2017-08-27T11:24:03.760Z,27.50
2017-08-27T11:26:32.735Z,28.00
2017-08-27T11:29:01.699Z,28.30
2017-08-27T11:31:30.675Z,28.40
2017-08-27T11:33:59.951Z,28.70
2017-08-27T11:36:28.914Z,29.20
2017-08-27T11:38:57.887Z,29.90
2017-08-27T11:41:26.850Z,30.50
2017-08-27T11:43:55.824Z,30.80
2017-08-27T11:46:24.788Z,31.20
2017-08-27T11:48:53.761Z,31.80
2017-08-27T11:51:22.738Z,32.10
2017-08-27T11:53:51.703Z,32.80
2017-08-27T11:56:20.714Z,33.70
2017-08-27T11:58:49.712Z,34.60
2017-08-27T12:01:18.682Z,35.50
2017-08-27T12:03:47.669Z,36.10
2017-08-27T12:06:16.726Z,36.70
2017-08-27T12:08:45.724Z,37.30
2017-08-27T12:11:14.699Z,37.80
2017-08-27T12:13:43.672Z,37.90
2017-08-27T12:16:12.658Z,37.90
2017-08-27T12:18:41.635Z,38.20
2017-08-27T12:21:10.640Z,38.40
2017-08-27T12:23:39.623Z,38.60
2017-08-27T12:26:08.594Z,38.60
2017-08-27T12:28:37.568Z,38.70
2017-08-27T12:31:06.540Z,38.60
2017-08-27T12:33:35.527Z,38.50
2017-08-27T12:36:04.507Z,38.20
2017-08-27T12:38:33.475Z,37.70
2017-08-27T12:41:02.459Z,37.10
2017-08-27T12:43:31.417Z,36.40
2017-08-27T12:46:00.402Z,35.70
2017-08-27T12:48:29.371Z,35.40
2017-08-27T12:50:58.329Z,35.20
2017-08-27T12:53:27.304Z,35.00
2017-08-27T12:55:56.794Z,34.90
2017-08-27T12:58:25.782Z,34.90
2017-08-27T13:00:54.834Z,34.70
2017-08-27T13:03:23.852Z,34.30
2017-08-27T13:05:52.980Z,33.90
2017-08-27T13:08:22.045Z,33.40
2017-08-27T13:10:51.419Z,33.00
2017-08-27T13:13:20.431Z,32.80
2017-08-27T13:15:51.790Z,32.80
2017-08-27T13:18:21.968Z,32.90
2017-08-27T13:20:50.976Z,33.30
2017-08-27T13:23:19.952Z,33.70
2017-08-27T13:25:48.900Z,34.10
2017-08-27T13:28:19.773Z,34.60
2017-08-27T13:30:48.723Z,35.30
2017-08-27T13:33:17.686Z,36.10
2017-08-27T13:35:46.674Z,36.80
2017-08-27T13:38:15.892Z,37.40
2017-08-27T13:40:44.849Z,37.80
2017-08-27T13:43:13.803Z,37.80
2017-08-27T13:45:42.755Z,37.70
2017-08-27T13:48:13.966Z,37.70
2017-08-27T13:50:42.952Z,37.90
2017-08-27T13:53:12.081Z,38.60
2017-08-27T13:55:41.016Z,39.40
2017-08-27T13:58:09.985Z,40.10
2017-08-27T14:00:38.947Z,40.20
2017-08-27T14:03:07.900Z,40.40
2017-08-27T14:05:36.851Z,40.90
2017-08-27T14:08:05.815Z,41.50
2017-08-27T14:10:34.760Z,42.10
2017-08-27T14:13:03.911Z,42.40
2017-08-27T14:15:33.092Z,42.80
2017-08-27T14:18:02.088Z,42.90
2017-08-27T14:20:31.033Z,43.00
2017-08-27T14:23:00.032Z,43.00
2017-08-27T14:25:29.090Z,43.10
2017-08-27T14:27:58.046Z,43.20
2017-08-27T14:30:27.160Z,43.10
2017-08-27T14:32:56.140Z,43.30
2017-08-27T14:35:25.099Z,43.00
2017-08-27T14:37:54.043Z,42.70
2017-08-27T14:40:23.024Z,42.70
2017-08-27T14:42:51.975Z,42.80
2017-08-27T14:45:20.973Z,42.90
2017-08-27T14:47:49.948Z,43.10
2017-08-27T14:50:18.891Z,43.10
2017-08-27T14:52:47.979Z,43.20
2017-08-27T14:55:17.002Z,43.20
2017-08-27T14:57:46.055Z,43.10
2017-08-27T15:00:15.205Z,43.10
2017-08-27T15:02:44.159Z,42.90
2017-08-27T15:05:13.112Z,42.60
2017-08-27T15:07:42.060Z,42.20
2017-08-27T15:10:11.019Z,42.00
2017-08-27T15:12:39.975Z,41.90
2017-08-27T15:15:08.948Z,41.60
2017-08-27T15:17:37.919Z,41.30
2017-08-27T15:20:07.029Z,41.20
2017-08-27T15:22:35.986Z,41.00
2017-08-27T15:25:04.939Z,40.80
2017-08-27T15:27:33.915Z,40.40
2017-08-27T15:30:02.886Z,40.10
2017-08-27T15:32:31.842Z,39.50
2017-08-27T15:35:00.880Z,38.90
2017-08-27T15:37:29.858Z,38.10
2017-08-27T15:39:58.893Z,37.30
2017-08-27T15:42:27.860Z,36.60
2017-08-27T15:44:56.826Z,35.90
2017-08-27T15:47:25.792Z,35.30
2017-08-27T15:49:54.755Z,34.80
2017-08-27T15:52:23.922Z,34.40
2017-08-27T15:54:52.952Z,34.00
2017-08-27T15:57:21.971Z,33.70
2017-08-27T15:59:50.936Z,33.20
2017-08-27T16:02:19.895Z,32.90
2017-08-27T16:04:48.886Z,32.60
2017-08-27T16:07:17.847Z,32.30
2017-08-27T16:09:46.807Z,32.00
2017-08-27T16:12:15.784Z,31.40
2017-08-27T16:14:48.026Z,30.50
2017-08-27T16:17:17.719Z,29.30
2017-08-27T16:19:46.814Z,27.40
2017-08-27T16:22:15.887Z,26.00
2017-08-27T16:24:44.866Z,25.00
2017-08-27T16:27:13.819Z,24.20
2017-08-27T16:29:42.795Z,23.80
2017-08-27T16:32:15.473Z,23.60
2017-08-27T16:34:45.479Z,23.40
2017-08-27T16:37:14.441Z,23.00
2017-08-27T16:39:43.386Z,22.70
2017-08-27T16:42:12.358Z,22.50
2017-08-27T16:44:41.307Z,22.40
2017-08-27T16:47:27.974Z,22.30
2017-08-27T16:49:56.934Z,22.20
2017-08-27T16:52:25.903Z,22.00
2017-08-27T16:54:54.876Z,22.00
2017-08-27T16:57:23.848Z,21.90
2017-08-27T16:59:52.844Z,21.90
2017-08-27T17:02:21.823Z,21.80
2017-08-27T17:11:26.416Z,21.50
2017-08-27T17:13:55.392Z,21.40
2017-08-27T17:16:28.289Z,21.40
2017-08-27T17:18:58.090Z,21.40
2017-08-27T17:21:30.230Z,21.40
2017-08-27T17:24:07.652Z,21.40
2017-08-27T17:26:36.830Z,21.40
2017-08-27T17:29:05.815Z,21.40
2017-08-27T17:31:36.753Z,21.50
2017-08-27T17:34:05.715Z,21.50
2017-08-27T17:36:47.784Z,21.50
2017-08-27T17:39:16.921Z,21.40
2017-08-27T17:41:45.971Z,21.40
2017-08-27T17:44:14.931Z,21.30
2017-08-27T17:46:43.933Z,21.30
2017-08-27T17:49:12.932Z,21.30
2017-08-27T17:51:41.889Z,21.20
2017-08-27T17:54:10.860Z,21.10
2017-08-27T17:56:39.835Z,21.10
2017-08-27T17:59:08.802Z,21.00
2017-08-27T18:01:37.792Z,20.90
2017-08-27T18:04:06.761Z,20.90
2017-08-27T18:06:35.732Z,20.80
2017-08-27T18:09:04.740Z,20.80
2017-08-27T18:11:33.717Z,20.80
2017-08-27T18:14:02.700Z,20.80
2017-08-27T18:16:31.673Z,20.70
2017-08-27T18:19:00.644Z,20.70
2017-08-27T18:21:29.687Z,20.80
2017-08-27T18:23:58.648Z,20.70
2017-08-27T18:26:27.623Z,20.80
2017-08-27T18:28:56.590Z,20.80
2017-08-27T18:31:25.555Z,20.80
2017-08-27T18:33:54.533Z,20.80
2017-08-27T18:36:23.496Z,20.80
2017-08-27T18:38:52.474Z,20.80
2017-08-27T18:41:21.440Z,20.80
2017-08-27T18:43:50.458Z,20.80
2017-08-27T18:46:19.412Z,20.90
2017-08-27T18:48:48.380Z,20.90
2017-08-27T18:51:17.359Z,20.90
2017-08-27T18:53:48.299Z,20.90
2017-08-27T18:56:18.240Z,20.90
2017-08-27T18:58:47.202Z,20.90
2017-08-27T19:01:23.744Z,20.90
2017-08-27T19:03:58.976Z,20.90
2017-08-27T19:06:37.848Z,20.90
2017-08-27T19:09:25.955Z,20.90
2017-08-27T19:11:55.129Z,20.80
2017-08-27T19:14:24.094Z,20.70
2017-08-27T19:16:53.081Z,20.70
2017-08-27T19:19:22.121Z,20.60
2017-08-27T19:21:52.604Z,20.60
2017-08-27T19:24:28.555Z,20.60
2017-08-27T19:26:57.520Z,20.60
2017-08-27T19:29:28.484Z,20.60
2017-08-27T19:31:57.452Z,20.60
2017-08-27T19:34:26.426Z,20.70
2017-08-27T19:36:55.388Z,20.60
2017-08-27T19:39:24.359Z,20.60
2017-08-27T19:41:53.335Z,20.60
2017-08-27T19:44:22.296Z,20.60
2017-08-27T19:46:52.258Z,20.60
2017-08-27T19:49:22.637Z,20.60
2017-08-27T19:51:56.059Z,20.60
2017-08-27T19:54:27.024Z,20.50
2017-08-27T19:56:57.945Z,20.50
2017-08-27T19:59:26.927Z,20.40
2017-08-27T20:01:55.929Z,20.40
2017-08-27T20:04:26.848Z,20.30
2017-08-27T20:07:04.141Z,20.30
2017-08-27T20:09:34.028Z,20.30
2017-08-27T20:12:02.994Z,20.30
2017-08-27T20:14:33.887Z,20.20
2017-08-27T20:17:05.560Z,20.20
2017-08-27T20:19:34.608Z,20.20
2017-08-27T20:22:03.571Z,20.20
2017-08-27T20:24:32.531Z,20.20
2017-08-27T20:27:01.529Z,20.20
2017-08-27T20:29:34.533Z,20.20
2017-08-27T20:32:03.495Z,20.20
2017-08-27T20:34:32.461Z,20.20
2017-08-27T20:37:13.593Z,20.20
2017-08-27T20:39:43.953Z,20.20
2017-08-27T20:42:13.144Z,20.20
2017-08-27T20:44:42.385Z,20.10
2017-08-27T20:47:11.503Z,20.10
2017-08-27T20:49:40.499Z,20.10
2017-08-27T20:52:09.467Z,20.10
2017-08-27T20:54:38.535Z,20.10
2017-08-27T20:57:11.831Z,20.00
2017-08-27T20:59:40.799Z,20.00
2017-08-27T21:02:09.806Z,20.00
2017-08-27T21:04:38.779Z,19.90
2017-08-27T21:07:07.749Z,19.90
2017-08-27T21:09:36.772Z,19.90
2017-08-27T21:12:05.824Z,19.80
2017-08-27T21:14:34.796Z,19.80
2017-08-27T21:17:05.381Z,19.80
2017-08-27T21:19:37.091Z,19.90
2017-08-27T21:22:06.069Z,19.80
2017-08-27T21:24:35.239Z,19.80
2017-08-27T21:27:04.218Z,19.80
2017-08-27T21:29:34.197Z,19.80
2017-08-27T21:32:03.159Z,19.80
2017-08-27T21:34:35.736Z,19.80
2017-08-27T21:37:04.731Z,19.70
2017-08-27T21:39:33.704Z,19.70
2017-08-27T21:42:02.671Z,19.60
2017-08-27T21:44:31.731Z,19.60
2017-08-27T21:47:05.024Z,19.50
2017-08-27T21:49:36.113Z,19.50
2017-08-27T21:52:05.047Z,19.50
2017-08-27T21:57:35.427Z,19.50
2017-08-27T22:00:04.423Z,19.50
2017-08-27T22:02:35.324Z,19.40
2017-08-27T22:05:04.299Z,19.40
2017-08-27T22:07:33.296Z,19.40
2017-08-27T22:10:02.261Z,19.30
2017-08-27T22:12:31.255Z,19.30
2017-08-27T22:15:00.237Z,19.30
2017-08-27T22:17:29.688Z,19.30
2017-08-27T22:19:59.591Z,19.30
2017-08-27T22:22:28.560Z,19.30
2017-08-27T22:24:57.549Z,19.30
2017-08-27T22:27:26.552Z,19.30
2017-08-27T22:30:02.999Z,19.20
2017-08-27T22:32:31.955Z,19.20
2017-08-27T22:35:00.916Z,19.20
2017-08-27T22:37:29.889Z,19.20
2017-08-27T22:40:01.863Z,19.20
2017-08-27T22:42:30.859Z,19.20
2017-08-27T22:44:59.803Z,19.20
2017-08-27T22:47:28.767Z,19.20
2017-08-27T22:50:05.784Z,19.20
2017-08-27T22:52:34.941Z,19.10
2017-08-27T22:55:05.993Z,19.10
2017-08-27T22:57:34.996Z,19.10
2017-08-27T23:00:04.868Z,19.10
2017-08-27T23:02:33.940Z,19.10
2017-08-27T23:05:02.892Z,19.10
2017-08-27T23:07:31.860Z,19.10
2017-08-27T23:10:02.004Z,19.10
2017-08-27T23:12:31.146Z,19.00
2017-08-27T23:15:01.182Z,19.00
2017-08-27T23:17:30.125Z,19.00
2017-08-27T23:19:59.306Z,19.00
2017-08-27T23:22:28.303Z,19.00
2017-08-27T23:24:57.544Z,19.00
2017-08-27T23:27:26.580Z,19.00
2017-08-27T23:29:55.548Z,19.00
2017-08-27T23:32:25.741Z,19.00
2017-08-27T23:34:54.741Z,18.90
2017-08-27T23:37:24.700Z,18.90
2017-08-27T23:39:53.667Z,18.90
2017-08-27T23:42:23.076Z,18.90
2017-08-27T23:44:52.179Z,18.90
2017-08-27T23:47:21.151Z,18.80
2017-08-27T23:49:50.139Z,18.90
2017-08-27T23:52:19.127Z,18.80
2017-08-27T23:54:48.100Z,18.80
2017-08-27T23:57:17.115Z,18.80
2017-08-27T23:59:46.111Z,18.80
